createdAt,value
2018-06-24T00:00:58.972Z,1.30
2018-06-24T00:03:27.150Z,1.30
2018-06-24T00:05:55.774Z,1.10
2018-06-24T00:08:23.881Z,1.30
2018-06-24T00:10:51.892Z,1.42
2018-06-24T00:13:19.920Z,1.22
2018-06-24T00:15:47.838Z,1.30
2018-06-24T00:18:15.849Z,1.20
2018-06-24T00:20:43.876Z,1.17
2018-06-24T00:23:12.083Z,1.20
2018-06-24T00:25:40.051Z,1.42
2018-06-24T00:28:07.932Z,1.10
2018-06-24T00:30:36.367Z,1.10
2018-06-24T00:33:04.279Z,0.95
2018-06-24T00:35:32.212Z,1.10
2018-06-24T00:38:00.113Z,1.17
2018-06-24T00:40:28.702Z,1.35
2018-06-24T00:42:56.623Z,1.32
2018-06-24T00:45:24.618Z,1.20
2018-06-24T00:47:52.543Z,1.30
2018-06-24T00:50:20.721Z,0.82
2018-06-24T00:52:48.801Z,1.10
2018-06-24T00:55:16.799Z,0.93
2018-06-24T00:57:44.817Z,1.20
2018-06-24T01:00:14.830Z,1.20
2018-06-24T01:02:42.890Z,1.10
2018-06-24T01:05:12.169Z,0.90
2018-06-24T01:07:40.557Z,0.90
2018-06-24T01:10:08.520Z,1.20
2018-06-24T01:12:36.500Z,1.10
2018-06-24T01:15:07.487Z,1.20
2018-06-24T01:17:35.483Z,1.22
2018-06-24T01:20:04.413Z,1.30
2018-06-24T01:22:32.380Z,1.20
2018-06-24T01:25:00.252Z,0.98
2018-06-24T01:27:28.256Z,1.30
2018-06-24T01:29:56.247Z,0.95
2018-06-24T01:32:24.695Z,1.07
2018-06-24T01:34:53.257Z,1.22
2018-06-24T01:37:21.212Z,1.02
2018-06-24T01:39:49.163Z,0.88
2018-06-24T01:42:17.123Z,1.30
2018-06-24T01:44:45.070Z,1.10
2018-06-24T01:47:12.975Z,1.00
2018-06-24T01:49:40.898Z,1.17
2018-06-24T01:52:08.997Z,1.00
2018-06-24T01:54:37.012Z,1.10
2018-06-24T01:57:05.096Z,1.10
2018-06-24T01:59:33.075Z,1.02
2018-06-24T02:02:01.066Z,1.17
2018-06-24T02:04:29.052Z,1.22
2018-06-24T02:06:56.970Z,1.45
2018-06-24T02:09:24.964Z,1.27
2018-06-24T02:11:52.977Z,1.22
2018-06-24T02:14:20.873Z,1.25
2018-06-24T02:16:48.818Z,1.20
2018-06-24T02:19:16.754Z,1.00
2018-06-24T02:21:44.776Z,1.12
2018-06-24T02:24:12.743Z,1.20
2018-06-24T02:26:41.115Z,1.15
2018-06-24T02:29:09.006Z,1.20
2018-06-24T02:31:37.043Z,1.10
2018-06-24T02:34:04.945Z,1.17
2018-06-24T02:36:33.890Z,1.00
2018-06-24T02:39:01.852Z,1.20
2018-06-24T02:41:29.972Z,0.95
2018-06-24T02:43:58.018Z,1.20
2018-06-24T02:46:25.915Z,1.20
2018-06-24T02:48:53.884Z,1.10
2018-06-24T02:51:21.813Z,1.20
2018-06-24T02:53:49.855Z,1.20
2018-06-24T02:56:17.824Z,1.15
2018-06-24T02:58:45.726Z,1.40
2018-06-24T03:01:13.675Z,1.07
2018-06-24T03:03:41.671Z,1.00
2018-06-24T03:06:09.605Z,0.93
2018-06-24T03:08:37.531Z,1.27
2018-06-24T03:11:05.500Z,1.30
2018-06-24T03:13:33.577Z,1.10
2018-06-24T03:16:01.480Z,1.45
2018-06-24T03:18:29.735Z,1.10
2018-06-24T03:20:57.687Z,1.10
2018-06-24T03:23:25.670Z,1.10
2018-06-24T03:25:54.589Z,1.10
2018-06-24T03:28:22.572Z,1.30
2018-06-24T03:30:50.548Z,1.47
2018-06-24T03:33:18.479Z,1.15
2018-06-24T03:35:46.583Z,1.20
2018-06-24T03:38:14.659Z,1.37
2018-06-24T03:40:42.636Z,0.90
2018-06-24T03:43:10.571Z,1.20
2018-06-24T03:45:38.526Z,1.30
2018-06-24T03:48:06.736Z,1.05
2018-06-24T03:50:34.829Z,1.07
2018-06-24T03:53:02.829Z,1.05
2018-06-24T03:55:30.822Z,0.90
2018-06-24T03:57:58.812Z,1.40
2018-06-24T04:00:26.827Z,1.32
2018-06-24T04:02:54.784Z,1.00
2018-06-24T04:05:22.700Z,1.10
2018-06-24T04:07:50.639Z,1.12
2018-06-24T04:10:18.684Z,1.15
2018-06-24T04:12:46.867Z,1.15
2018-06-24T04:15:14.824Z,1.10
2018-06-24T04:17:45.456Z,0.90
2018-06-24T04:20:13.471Z,1.20
2018-06-24T04:22:41.584Z,1.20
2018-06-24T04:25:10.101Z,1.10
2018-06-24T04:27:38.174Z,0.80
2018-06-24T04:30:07.181Z,0.82
2018-06-24T04:32:35.175Z,1.30
2018-06-24T04:35:03.245Z,1.10
2018-06-24T04:37:31.299Z,0.93
2018-06-24T04:39:59.385Z,0.95
2018-06-24T04:42:27.410Z,1.05
2018-06-24T04:44:55.361Z,1.00
2018-06-24T04:47:23.490Z,1.00
2018-06-24T04:49:51.404Z,1.10
2018-06-24T04:52:19.433Z,0.93
2018-06-24T04:54:47.417Z,0.95
2018-06-24T04:57:15.350Z,1.80
2018-06-24T04:59:44.283Z,2.10
2018-06-24T05:02:12.311Z,2.47
2018-06-24T05:04:40.294Z,2.20
2018-06-24T05:07:08.178Z,1.90
2018-06-24T05:09:36.100Z,2.00
2018-06-24T05:12:04.023Z,2.22
2018-06-24T05:14:31.993Z,2.60
2018-06-24T05:16:59.868Z,3.10
2018-06-24T05:19:27.971Z,3.17
2018-06-24T05:21:55.950Z,2.72
2018-06-24T05:24:24.328Z,2.83
2018-06-24T05:26:52.268Z,3.30
2018-06-24T05:29:20.241Z,3.20
2018-06-24T05:31:48.874Z,3.37
2018-06-24T05:34:16.877Z,2.80
2018-06-24T05:36:44.801Z,2.33
2018-06-24T05:39:13.575Z,3.00
2018-06-24T05:41:41.899Z,2.80
2018-06-24T05:44:10.297Z,2.47
2018-06-24T05:46:38.654Z,2.72
2018-06-24T05:49:06.702Z,2.40
2018-06-24T05:51:34.675Z,2.67
2018-06-24T05:54:02.595Z,2.90
2018-06-24T05:56:30.617Z,3.02
2018-06-24T05:58:58.585Z,3.35
2018-06-24T06:01:26.516Z,2.35
2018-06-24T06:03:55.057Z,2.33
2018-06-24T06:06:23.073Z,2.50
2018-06-24T06:08:52.411Z,2.67
2018-06-24T06:11:20.797Z,2.33
2018-06-24T06:13:48.783Z,2.00
2018-06-24T06:16:17.227Z,2.27
2018-06-24T06:18:46.827Z,2.30
2018-06-24T06:21:14.719Z,2.27
2018-06-24T06:23:42.760Z,2.00
2018-06-24T06:26:12.006Z,2.08
2018-06-24T06:28:40.008Z,1.92
2018-06-24T06:31:07.959Z,2.20
2018-06-24T06:33:36.076Z,1.95
2018-06-24T06:36:04.596Z,2.40
2018-06-24T06:38:32.649Z,2.33
2018-06-24T06:41:00.675Z,2.25
2018-06-24T06:43:28.896Z,2.08
2018-06-24T06:45:56.989Z,2.27
2018-06-24T06:48:25.020Z,2.40
2018-06-24T06:50:52.939Z,2.20
2018-06-24T06:53:21.065Z,2.27
2018-06-24T06:55:49.092Z,2.12
2018-06-24T06:58:18.001Z,2.00
2018-06-24T07:00:46.667Z,2.22
2018-06-24T07:03:14.874Z,2.00
2018-06-24T07:05:42.950Z,2.30
2018-06-24T07:08:11.477Z,2.22
2018-06-24T07:10:39.415Z,2.15
2018-06-24T07:13:07.454Z,2.00
2018-06-24T07:15:35.417Z,2.30
2018-06-24T07:18:03.988Z,2.60
2018-06-24T07:20:32.555Z,2.90
2018-06-24T07:23:00.675Z,1.90
2018-06-24T07:25:28.665Z,2.15
2018-06-24T07:27:57.795Z,2.10
2018-06-24T07:30:25.894Z,2.20
2018-06-24T07:32:53.906Z,2.02
2018-06-24T07:35:21.892Z,1.80
2018-06-24T07:37:49.853Z,2.00
2018-06-24T07:40:17.823Z,2.20
2018-06-24T07:42:46.393Z,1.90
2018-06-24T07:45:14.330Z,2.00
2018-06-24T07:47:42.439Z,2.30
2018-06-24T07:50:10.380Z,2.95
2018-06-24T07:52:38.408Z,4.03
2018-06-24T07:55:06.363Z,1.47
2018-06-24T07:57:34.419Z,1.60
2018-06-24T08:00:02.552Z,1.70
2018-06-24T08:02:30.506Z,1.52
2018-06-24T08:04:58.522Z,1.87
2018-06-24T08:07:26.454Z,3.35
2018-06-24T08:09:54.421Z,5.87
2018-06-24T08:12:22.373Z,1.90
2018-06-24T08:14:50.334Z,3.50
2018-06-24T08:17:18.689Z,2.77
2018-06-24T08:19:46.792Z,1.77
2018-06-24T08:22:15.934Z,1.87
2018-06-24T08:24:44.005Z,1.90
2018-06-24T08:27:12.750Z,1.90
2018-06-24T08:29:40.712Z,2.55
2018-06-24T08:32:08.736Z,1.92
2018-06-24T08:34:36.651Z,4.40
2018-06-24T08:37:06.803Z,1.92
2018-06-24T08:39:34.794Z,3.15
2018-06-24T08:42:02.794Z,3.27
2018-06-24T08:44:31.399Z,2.92
2018-06-24T08:46:59.790Z,3.47
2018-06-24T08:49:27.766Z,1.80
2018-06-24T08:51:55.698Z,1.85
2018-06-24T08:54:23.713Z,1.57
2018-06-24T08:56:51.872Z,1.60
2018-06-24T08:59:19.947Z,1.95
2018-06-24T09:01:48.358Z,1.80
2018-06-24T09:04:16.718Z,1.65
2018-06-24T09:06:44.821Z,2.20
2018-06-24T09:09:12.846Z,1.95
2018-06-24T09:11:40.925Z,2.98
2018-06-24T09:14:08.980Z,1.98
2018-06-24T09:16:37.051Z,1.50
2018-06-24T09:19:05.199Z,6.30
2018-06-24T09:21:33.201Z,2.17
2018-06-24T09:24:01.223Z,1.75
2018-06-24T09:26:29.282Z,3.42
2018-06-24T09:28:57.272Z,1.70
2018-06-24T09:31:25.531Z,2.60
2018-06-24T09:33:53.571Z,1.98
2018-06-24T09:36:21.607Z,1.62
2018-06-24T09:38:49.730Z,1.90
2018-06-24T09:41:17.839Z,1.95
2018-06-24T09:43:45.966Z,2.15
2018-06-24T09:46:14.173Z,1.50
2018-06-24T09:48:42.179Z,1.67
2018-06-24T09:51:10.150Z,1.87
2018-06-24T09:53:38.230Z,1.90
2018-06-24T09:56:06.273Z,1.80
2018-06-24T09:58:34.283Z,1.70
2018-06-24T10:01:02.288Z,1.95
2018-06-24T10:03:30.244Z,2.60
2018-06-24T10:05:58.247Z,2.80
2018-06-24T10:08:26.200Z,2.05
2018-06-24T10:10:54.188Z,1.92
2018-06-24T10:13:22.219Z,2.40
2018-06-24T10:15:50.166Z,1.90
2018-06-24T10:18:18.134Z,1.35
2018-06-24T10:20:46.120Z,1.72
2018-06-24T10:23:14.093Z,3.17
2018-06-24T10:25:42.054Z,2.75
2018-06-24T10:28:10.053Z,1.90
2018-06-24T10:30:37.991Z,3.87
2018-06-24T10:33:06.031Z,3.87
2018-06-24T10:35:34.014Z,1.75
2018-06-24T10:38:02.058Z,2.45
2018-06-24T10:40:30.743Z,1.80
2018-06-24T10:42:58.762Z,1.67
2018-06-24T10:45:27.012Z,1.80
2018-06-24T10:47:54.958Z,4.33
2018-06-24T10:50:22.883Z,1.82
2018-06-24T10:52:51.650Z,1.75
2018-06-24T10:55:20.604Z,1.87
2018-06-24T10:57:48.691Z,1.92
2018-06-24T11:00:16.660Z,1.90
2018-06-24T11:02:44.646Z,1.75
2018-06-24T11:05:12.672Z,1.80
2018-06-24T11:07:41.706Z,1.70
2018-06-24T11:10:09.753Z,1.62
2018-06-24T11:12:37.742Z,4.05
2018-06-24T11:15:05.744Z,2.12
2018-06-24T11:17:33.776Z,4.08
2018-06-24T11:20:02.013Z,3.17
2018-06-24T11:22:30.042Z,3.67
2018-06-24T11:24:58.004Z,1.70
2018-06-24T11:27:26.059Z,2.00
2018-06-24T11:29:54.178Z,1.72
2018-06-24T11:32:22.145Z,2.45
2018-06-24T11:34:50.233Z,1.90
2018-06-24T11:37:18.284Z,2.10
2018-06-24T11:39:46.306Z,1.92
2018-06-24T11:42:14.685Z,2.65
2018-06-24T11:44:42.638Z,2.67
2018-06-24T11:47:10.716Z,1.90
2018-06-24T11:49:38.646Z,2.10
2018-06-24T11:52:06.710Z,2.08
2018-06-24T11:54:34.711Z,2.27
2018-06-24T11:57:02.919Z,2.00
2018-06-24T11:59:30.960Z,5.58
2018-06-24T12:01:58.913Z,2.58
2018-06-24T12:04:27.057Z,2.40
2018-06-24T12:06:55.086Z,2.10
2018-06-24T12:09:23.070Z,1.80
2018-06-24T12:11:51.154Z,1.80
2018-06-24T12:14:19.159Z,1.90
2018-06-24T12:16:47.352Z,1.82
2018-06-24T12:19:15.445Z,1.80
2018-06-24T12:21:43.472Z,2.10
2018-06-24T12:24:11.583Z,2.00
2018-06-24T12:26:39.667Z,1.70
2018-06-24T12:29:07.612Z,2.10
2018-06-24T12:31:36.460Z,2.27
2018-06-24T12:34:04.668Z,2.00
2018-06-24T12:36:37.570Z,1.90
2018-06-24T12:39:11.821Z,2.00
2018-06-24T12:41:40.002Z,2.17
2018-06-24T12:44:08.660Z,2.10
2018-06-24T12:46:36.669Z,2.10
2018-06-24T12:49:05.537Z,2.30
2018-06-24T12:51:33.746Z,2.10
2018-06-24T12:54:01.836Z,2.00
2018-06-24T12:56:30.149Z,2.00
2018-06-24T12:58:58.215Z,2.30
2018-06-24T13:01:26.122Z,2.50
2018-06-24T13:03:54.827Z,1.90
2018-06-24T13:06:23.200Z,2.10
2018-06-24T13:08:51.378Z,1.90
2018-06-24T13:11:19.566Z,1.98
2018-06-24T13:13:47.813Z,2.00
2018-06-24T13:16:15.879Z,2.45
2018-06-24T13:18:44.111Z,2.00
2018-06-24T13:21:12.171Z,2.00
2018-06-24T13:23:40.311Z,2.17
2018-06-24T13:26:08.350Z,2.02
2018-06-24T13:28:36.711Z,2.30
2018-06-24T13:31:04.780Z,2.40
2018-06-24T13:33:32.782Z,2.22
2018-06-24T13:36:00.727Z,2.00
2018-06-24T13:38:28.798Z,2.22
2018-06-24T13:40:56.790Z,1.87
2018-06-24T13:43:24.821Z,2.17
2018-06-24T13:45:52.753Z,2.60
2018-06-24T13:48:20.728Z,2.20
2018-06-24T13:50:48.766Z,2.33
2018-06-24T13:53:16.627Z,2.10
2018-06-24T13:55:46.547Z,2.17
2018-06-24T13:58:14.640Z,2.12
2018-06-24T14:00:42.623Z,1.90
2018-06-24T14:03:10.598Z,2.10
2018-06-24T14:05:38.558Z,2.00
2018-06-24T14:08:06.655Z,2.10
2018-06-24T14:10:34.659Z,2.20
2018-06-24T14:13:02.872Z,1.90
2018-06-24T14:15:30.924Z,2.27
2018-06-24T14:17:58.834Z,1.90
2018-06-24T14:20:26.985Z,2.45
2018-06-24T14:22:54.927Z,2.30
2018-06-24T14:25:23.406Z,2.37
2018-06-24T14:27:51.495Z,2.58
2018-06-24T14:30:19.444Z,2.80
2018-06-24T14:32:47.555Z,2.40
2018-06-24T14:35:15.544Z,2.20
2018-06-24T14:37:43.828Z,2.20
2018-06-24T14:40:11.880Z,2.30
2018-06-24T14:42:39.955Z,2.37
2018-06-24T14:45:14.455Z,2.40
2018-06-24T14:47:42.470Z,2.40
2018-06-24T14:50:10.446Z,2.30
2018-06-24T14:52:38.510Z,2.17
2018-06-24T14:55:07.961Z,2.10
2018-06-24T14:57:35.959Z,2.80
2018-06-24T15:00:04.444Z,2.50
2018-06-24T15:02:34.665Z,2.47
2018-06-24T15:05:03.259Z,2.62
2018-06-24T15:07:31.238Z,2.17
2018-06-24T15:09:59.360Z,1.92
2018-06-24T15:12:27.342Z,2.20
2018-06-24T15:14:55.382Z,1.90
2018-06-24T15:17:23.414Z,2.12
2018-06-24T15:19:51.366Z,1.92
2018-06-24T15:22:19.431Z,1.90
2018-06-24T15:24:48.445Z,2.25
2018-06-24T15:27:16.369Z,3.02
2018-06-24T15:29:44.354Z,1.90
2018-06-24T15:32:12.315Z,1.90
2018-06-24T15:34:40.226Z,1.90
2018-06-24T15:37:08.216Z,2.40
2018-06-24T15:39:36.260Z,1.85
2018-06-24T15:42:04.341Z,2.25
2018-06-24T15:44:32.293Z,1.90
2018-06-24T15:47:00.234Z,2.83
2018-06-24T15:49:28.622Z,2.50
2018-06-24T15:51:56.642Z,2.15
2018-06-24T15:54:24.636Z,1.90
2018-06-24T15:56:52.626Z,2.10
2018-06-24T15:59:20.617Z,2.30
2018-06-24T16:01:48.597Z,2.10
2018-06-24T16:04:16.538Z,2.47
2018-06-24T16:06:44.498Z,2.25
2018-06-24T16:09:13.055Z,2.10
2018-06-24T16:11:42.060Z,2.00
2018-06-24T16:14:10.029Z,2.62
2018-06-24T16:16:39.780Z,2.92
2018-06-24T16:19:08.954Z,1.90
2018-06-24T16:21:37.004Z,2.05
2018-06-24T16:24:08.291Z,2.12
2018-06-24T16:26:36.561Z,2.40
2018-06-24T16:29:04.598Z,2.20
2018-06-24T16:31:32.602Z,2.22
2018-06-24T16:34:00.638Z,1.90
2018-06-24T16:36:29.287Z,1.80
2018-06-24T16:38:57.585Z,1.95
2018-06-24T16:41:25.635Z,1.95
2018-06-24T16:43:53.551Z,2.10
2018-06-24T16:46:21.488Z,2.00
2018-06-24T16:48:49.484Z,1.80
2018-06-24T16:51:17.514Z,1.80
2018-06-24T16:53:45.643Z,2.10
2018-06-24T16:56:13.635Z,1.90
2018-06-24T16:58:42.203Z,2.05
2018-06-24T17:01:10.311Z,1.87
2018-06-24T17:03:38.236Z,1.80
2018-06-24T17:06:06.204Z,2.20
2018-06-24T17:08:34.208Z,2.33
2018-06-24T17:11:02.144Z,2.30
2018-06-24T17:13:30.134Z,2.12
2018-06-24T17:15:58.288Z,2.15
2018-06-24T17:18:26.908Z,2.42
2018-06-24T17:20:54.905Z,2.22
2018-06-24T17:23:22.975Z,2.10
2018-06-24T17:25:51.012Z,2.20
2018-06-24T17:28:19.058Z,2.35
2018-06-24T17:30:47.130Z,2.42
2018-06-24T17:33:15.621Z,2.20
2018-06-24T17:35:43.730Z,2.42
2018-06-24T17:38:12.053Z,2.58
2018-06-24T17:40:40.081Z,2.60
2018-06-24T17:43:08.331Z,2.10
2018-06-24T17:45:39.967Z,2.20
2018-06-24T17:48:08.054Z,2.45
2018-06-24T17:50:36.315Z,2.30
2018-06-24T17:53:04.709Z,1.95
2018-06-24T17:55:32.709Z,2.40
2018-06-24T17:58:00.808Z,2.50
2018-06-24T18:00:28.806Z,2.80
2018-06-24T18:02:56.714Z,2.40
2018-06-24T18:05:24.701Z,2.27
2018-06-24T18:07:52.627Z,2.35
2018-06-24T18:10:20.672Z,2.30
2018-06-24T18:12:48.792Z,2.33
2018-06-24T18:15:17.006Z,2.83
2018-06-24T18:17:45.259Z,2.22
2018-06-24T18:20:13.302Z,1.95
2018-06-24T18:22:41.256Z,2.10
2018-06-24T18:25:09.505Z,2.20
2018-06-24T18:27:37.491Z,1.82
2018-06-24T18:30:06.117Z,1.90
2018-06-24T18:32:34.134Z,1.98
2018-06-24T18:35:02.168Z,2.05
2018-06-24T18:37:30.124Z,1.90
2018-06-24T18:39:58.088Z,2.40
2018-06-24T18:42:26.309Z,1.95
2018-06-24T18:44:54.321Z,3.00
2018-06-24T18:47:22.448Z,2.17
2018-06-24T18:49:51.344Z,1.77
2018-06-24T18:52:19.900Z,2.10
2018-06-24T18:54:47.862Z,1.98
2018-06-24T18:57:16.029Z,2.22
2018-06-24T18:59:44.060Z,2.05
2018-06-24T19:02:12.471Z,1.95
2018-06-24T19:04:40.525Z,2.00
2018-06-24T19:07:08.951Z,2.10
2018-06-24T19:09:37.200Z,1.90
2018-06-24T19:12:05.215Z,1.95
2018-06-24T19:14:33.168Z,1.90
2018-06-24T19:17:01.275Z,2.10
2018-06-24T19:19:29.352Z,4.12
2018-06-24T19:21:57.515Z,3.37
2018-06-24T19:24:25.638Z,4.53
2018-06-24T19:26:53.848Z,2.00
2018-06-24T19:29:21.924Z,3.47
2018-06-24T19:31:49.920Z,2.80
2018-06-24T19:34:18.011Z,7.90
2018-06-24T19:36:46.417Z,1.98
2018-06-24T19:39:14.506Z,1.90
2018-06-24T19:41:43.402Z,2.10
2018-06-24T19:44:11.465Z,1.77
2018-06-24T19:46:39.441Z,1.80
2018-06-24T19:49:07.424Z,2.10
2018-06-24T19:51:35.758Z,1.85
2018-06-24T19:54:03.752Z,1.80
2018-06-24T19:56:31.751Z,1.92
2018-06-24T19:58:59.789Z,2.02
2018-06-24T20:01:27.824Z,1.80
2018-06-24T20:03:55.822Z,1.87
2018-06-24T20:06:23.842Z,1.87
2018-06-24T20:08:51.893Z,2.10
2018-06-24T20:11:19.934Z,1.92
2018-06-24T20:13:47.953Z,2.05
2018-06-24T20:16:15.982Z,1.98
2018-06-24T20:18:44.059Z,2.10
2018-06-24T20:21:12.155Z,2.00
2018-06-24T20:23:40.653Z,2.00
2018-06-24T20:26:08.879Z,2.27
2018-06-24T20:28:37.010Z,2.37
2018-06-24T20:31:05.496Z,2.47
2018-06-24T20:33:33.546Z,2.05
2018-06-24T20:36:01.821Z,1.90
2018-06-24T20:38:29.968Z,2.15
2018-06-24T20:40:57.898Z,8.25
2018-06-24T20:43:25.959Z,7.10
2018-06-24T20:45:53.929Z,5.95
2018-06-24T20:48:22.074Z,5.78
2018-06-24T20:50:50.083Z,7.50
2018-06-24T20:53:18.856Z,3.47
2018-06-24T20:55:47.107Z,4.47
2018-06-24T20:58:15.618Z,4.05
2018-06-24T21:00:43.774Z,2.50
2018-06-24T21:03:11.804Z,2.50
2018-06-24T21:05:39.707Z,2.55
2018-06-24T21:08:07.800Z,2.50
2018-06-24T21:10:35.865Z,2.50
2018-06-24T21:13:03.838Z,2.65
2018-06-24T21:15:31.841Z,2.52
2018-06-24T21:17:59.779Z,2.60
2018-06-24T21:20:27.811Z,2.60
2018-06-24T21:22:55.762Z,2.30
2018-06-24T21:25:23.769Z,2.40
2018-06-24T21:27:51.818Z,2.20
2018-06-24T21:30:19.758Z,2.90
2018-06-24T21:32:47.731Z,2.50
2018-06-24T21:35:15.717Z,2.50
2018-06-24T21:37:43.658Z,2.47
2018-06-24T21:40:11.642Z,3.17
2018-06-24T21:42:40.104Z,3.00
2018-06-24T21:45:08.058Z,2.72
2018-06-24T21:47:35.996Z,2.87
2018-06-24T21:50:03.979Z,3.10
2018-06-24T21:52:31.935Z,2.80
2018-06-24T21:54:59.902Z,3.10
2018-06-24T21:57:27.845Z,2.85
2018-06-24T21:59:55.761Z,2.80
2018-06-24T22:02:23.725Z,2.67
2018-06-24T22:04:51.756Z,2.55
2018-06-24T22:07:20.065Z,2.50
2018-06-24T22:09:48.024Z,2.40
2018-06-24T22:12:16.065Z,2.50
2018-06-24T22:14:43.985Z,2.70
2018-06-24T22:17:11.967Z,2.67
2018-06-24T22:19:39.929Z,2.87
2018-06-24T22:22:07.889Z,2.80
2018-06-24T22:24:35.832Z,2.85
2018-06-24T22:27:03.880Z,2.83
2018-06-24T22:29:31.890Z,2.90
2018-06-24T22:31:59.935Z,2.80
2018-06-24T22:34:27.895Z,2.70
2018-06-24T22:36:55.852Z,2.45
2018-06-24T22:39:23.919Z,2.75
2018-06-24T22:41:51.858Z,2.72
2018-06-24T22:44:19.799Z,2.80
2018-06-24T22:46:47.862Z,2.77
2018-06-24T22:49:15.912Z,2.70
2018-06-24T22:51:43.960Z,2.80
2018-06-24T22:54:11.907Z,2.60
2018-06-24T22:56:39.984Z,2.40
2018-06-24T22:59:19.181Z,2.45
2018-06-24T23:01:47.179Z,2.37
2018-06-24T23:04:15.330Z,2.40
2018-06-24T23:06:43.287Z,3.00
2018-06-24T23:09:11.262Z,2.60
2018-06-24T23:11:39.201Z,2.40
2018-06-24T23:14:07.102Z,2.50
2018-06-24T23:16:35.546Z,2.70
2018-06-24T23:19:03.723Z,2.42
2018-06-24T23:21:31.678Z,2.83
2018-06-24T23:24:00.132Z,2.60
2018-06-24T23:26:28.126Z,2.70
2018-06-24T23:28:56.110Z,2.60
2018-06-24T23:31:23.974Z,2.67
2018-06-24T23:33:51.942Z,2.50
2018-06-24T23:36:19.989Z,2.60
2018-06-24T23:38:48.040Z,2.40
2018-06-24T23:41:15.954Z,2.50
2018-06-24T23:43:43.950Z,2.70
2018-06-24T23:46:11.859Z,2.40
2018-06-24T23:48:39.930Z,2.30
2018-06-24T23:51:07.888Z,2.50
2018-06-24T23:53:35.821Z,2.25
2018-06-24T23:56:03.844Z,2.17
2018-06-24T23:58:31.790Z,2.30
